MV Lockmaster — WDF4136 — position and weather

sailwx.info

Track history (hours):
 
Tides and Currents Weather Stations Pressure Air Temp Water Temp Dewpoint Dewpoint Depression Visibility Wind Speed Wind Dir Waves Ship Positions

MV Lockmaster

Owner: River Construction, Metaire, LA. More information available from US FCC via Universal Licensing System and Coast Guard Vessel Documentation Center.

Last reported at 2014-Dec-20 08:09 UTC. Time now 2014-Dec-20 14:27 UTC.
Position N 29°60' W 089°59'.

Type: Towing. MMSI: 367448420.

Date/timePositionNaut miles runAvg speedWind from/ knotsBaromVisibWave heightAir tempDewpointWater temp
2014-Dec-20 08:09N 29°60' W 089°59'0 0.0
2014-Dec-20 06:08N 29°60' W 089°59'0 0.0
2014-Dec-20 05:20N 29°60' W 089°59'0 0.0
2014-Dec-20 02:05N 29°60' W 089°59'0 0.0
2014-Dec-20 01:18N 29°60' W 089°59'0 0.0
2014-Dec-20 00:17N 29°60' W 089°59'0 0.0
2014-Dec-19 23:28N 29°60' W 089°59'0 0.0
2014-Dec-19 22:25N 29°60' W 089°59'0 0.0
2014-Dec-19 21:33N 29°60' W 089°59'0 0.0
2014-Dec-19 20:32N 29°60' W 089°59'0 0.0
2014-Dec-19 19:33N 30°00' W 089°59'0 0.1
2014-Dec-19 18:20N 29°60' W 089°59'0 0.4
2014-Dec-19 17:33N 29°60' W 089°59'1 0.4
2014-Dec-19 16:12N 29°60' W 089°58'1 1.3
2014-Dec-19 15:32N 29°60' W 089°59'0 0.0
2014-Dec-19 14:30N 29°60' W 089°59'0 0.0
2014-Dec-19 13:32N 29°60' W 089°59'0 0.1
2014-Dec-19 12:21N 29°60' W 089°60'0 0.0
2014-Dec-19 11:33N 29°60' W 089°60'0 0.0
2014-Dec-19 10:31N 29°60' W 089°60'0 0.0
2014-Dec-19 09:32N 29°60' W 089°60'0 0.0
2014-Dec-19 08:15N 29°60' W 089°60'0 0.0
2014-Dec-19 07:21N 29°60' W 089°60'0 0.0
2014-Dec-18 20:09N 29°60' W 089°60'0 0.0
2014-Dec-18 19:25N 29°60' W 089°60'3 2.3
2014-Dec-18 18:14N 29°58' W 090°02'0 0.2
2014-Dec-18 17:33N 29°58' W 090°02'3 2.7
2014-Dec-18 16:22N 29°55' W 090°04'4 2.1
2014-Dec-18 14:29N 29°56' W 090°08'3 2.5
2014-Dec-18 13:23N 29°54' W 090°06'0 0.0
2014-Dec-18 12:33N 29°54' W 090°06'0 0.0
2014-Dec-18 11:32N 29°54' W 090°06'0 0.0
2014-Dec-18 10:32N 29°54' W 090°06'0 0.0
2014-Dec-18 09:32N 29°54' W 090°06'0 0.0
2014-Dec-18 08:33N 29°54' W 090°06'0 0.0
2014-Dec-18 07:32N 29°54' W 090°06'4 4.6
2014-Dec-18 06:33N 29°58' W 090°02'1 0.8
2014-Dec-18 05:30N 29°58' W 090°02'1 0.5
2014-Dec-18 04:32N 29°58' W 090°01'2 2.3
2014-Dec-18 03:31N 29°60' W 089°60'0 0.0
2014-Dec-18 02:16N 29°60' W 089°60'0 0.0
2014-Dec-17 16:16N 29°60' W 089°60'3 1.0
2014-Dec-17 13:15N 29°58' W 090°02'0 0.0
2014-Dec-17 12:30N 29°58' W 090°02'0 0.2
2014-Dec-17 10:18N 29°58' W 090°02'3 3.5
2014-Dec-17 09:33N 29°60' W 089°60'0 0.0
2014-Dec-17 08:26N 29°60' W 089°60'1 0.6
2014-Dec-17 06:33N 30°00' W 089°58'4 3.7
2014-Dec-17 05:33N 29°58' W 090°02'5 3.3
2014-Dec-17 04:07N 29°55' W 089°57'2 2.0
2014-Dec-17 03:12N 29°56' W 089°59'3 4.4
2014-Dec-17 02:32N 29°58' W 090°02'3 2.9
2014-Dec-17 01:33N 29°60' W 089°59'0 0.1
2014-Dec-17 00:25N 29°60' W 089°60'0 0.0
2014-Dec-16 23:33N 29°60' W 089°60'0 0.0
2014-Dec-16 22:32N 29°60' W 089°60'0 0.0
2014-Dec-16 21:33N 29°60' W 089°60'0 0.0
2014-Dec-16 20:22N 29°60' W 089°60'0 0.0
2014-Dec-16 09:21N 29°60' W 089°60'0 0.0
2014-Dec-16 04:24N 29°60' W 089°60'0 0.0
2014-Dec-16 03:26N 29°60' W 089°60'0 0.0
2014-Dec-16 02:31N 29°60' W 089°60'0 0.0
2014-Dec-15 23:20N 29°60' W 089°60'0 0.0
2014-Dec-15 22:26N 29°60' W 089°60'0 0.0
2014-Dec-15 21:33N 29°60' W 089°60'0 0.0
2014-Dec-15 20:30N 29°60' W 089°60'4 4.0
2014-Dec-15 19:30N 30°01' W 089°55'1 0.6
2014-Dec-15 18:32N 30°01' W 089°54'4 4.3
2014-Dec-15 17:33N 29°60' W 089°59'0 0.2
2014-Dec-15 16:24N 29°60' W 089°60'0 0.0
2014-Dec-15 15:32N 29°60' W 089°60'0 0.0
2014-Dec-15 14:25N 29°60' W 089°60'0 0.0
2014-Dec-15 13:23N 29°60' W 089°60'0 0.0
2014-Dec-14 20:18N 29°60' W 089°60'5 2.2
2014-Dec-14 18:10N 29°56' W 089°58'1 0.7
2014-Dec-14 17:17N 29°56' W 089°59'3 4.6
2014-Dec-14 16:33N 29°58' W 090°02'2 1.7
2014-Dec-14 15:14N 29°60' W 090°01'1 1.7
2014-Dec-14 14:32N 29°60' W 089°60'0 0.0
2014-Dec-14 13:19N 29°60' W 089°60'0 0.0
2014-Dec-14 12:33N 29°60' W 089°60'0 0.0
2014-Dec-14 10:33N 29°60' W 089°60'0 0.0
2014-Dec-14 09:32N 29°60' W 089°60'0 0.0
2014-Dec-14 08:33N 29°60' W 089°60'0 0.0
2014-Dec-14 07:33N 29°60' W 089°60'0 0.0
2014-Dec-14 06:29N 29°60' W 089°60'0 0.0
2014-Dec-14 05:33N 29°60' W 089°60'0 0.0
2014-Dec-14 04:32N 29°60' W 089°60'0 0.0
2014-Dec-14 03:33N 29°60' W 089°60'0 0.0
2014-Dec-14 02:33N 29°60' W 089°60'0 0.0
2014-Dec-14 01:30N 29°60' W 089°60'0 0.0
2014-Dec-14 00:33N 29°60' W 089°60'0 0.0
2014-Dec-13 23:25N 29°60' W 089°60'0 0.0
2014-Dec-13 22:32N 29°60' W 089°60'0 0.0
2014-Dec-13 21:30N 29°60' W 089°60'4 3.7
2014-Dec-13 20:27N 30°01' W 089°55'4 4.7
2014-Dec-13 19:31N 29°60' W 090°00'1 0.0
2014-Dec-13 06:33N 29°60' W 089°60'0 0.0
2014-Dec-13 05:14N 29°60' W 089°60'0 0.0
2014-Dec-13 03:21N 29°60' W 089°60'0 0.0
2014-Dec-12 23:21N 29°60' W 089°60'0 0.0
2014-Dec-12 21:25N 29°60' W 089°60'0 0.0
2014-Dec-12 20:21N 29°60' W 089°60'3 3.2
2014-Dec-12 19:21N 29°57' W 090°01'1 0.5
2014-Dec-12 17:33N 29°57' W 090°00'2 1.8
2014-Dec-12 16:31N 29°58' W 090°02'1 1.0
2014-Dec-12 15:23N 29°59' W 090°01'2 1.8
2014-Dec-12 14:32N 29°58' W 090°02'0 0.0
2014-Dec-12 13:33N 29°58' W 090°02'0 0.0
2014-Dec-12 12:32N 29°58' W 090°02'0 0.2
2014-Dec-12 11:32N 29°58' W 090°02'1 0.9
2014-Dec-12 10:33N 29°59' W 090°01'2 2.0
2014-Dec-12 09:32N 29°60' W 089°60'0 0.0
2014-Dec-12 08:30N 29°60' W 089°60'0 0.0
2014-Dec-12 07:29N 29°60' W 089°60'0 0.0
2014-Dec-12 06:30N 29°60' W 089°60'0 0.0
2014-Dec-12 05:32N 29°60' W 089°60'0 0.0
2014-Dec-12 04:15N 29°60' W 089°60'0 0.0
2014-Dec-11 16:31N 29°60' W 089°60'0 0.0
2014-Dec-11 13:30N 29°60' W 089°60'0 0.0
2014-Dec-11 12:32N 29°60' W 089°60'0 0.0
2014-Dec-11 10:27N 29°60' W 089°60'0 0.0
2014-Dec-11 09:17N 29°60' W 089°60'0 0.0
2014-Dec-11 02:18N 29°60' W 089°60'0 0.0
2014-Dec-11 00:05N 29°60' W 089°60'0 0.0
2014-Dec-10 23:31N 29°60' W 089°60'0 0.0
2014-Dec-10 22:18N 29°60' W 089°60'0 0.2
2014-Dec-10 21:20N 29°60' W 089°59'0 0.2
2014-Dec-10 20:28N 29°60' W 089°60'0 0.0
2014-Dec-10 19:33N 29°60' W 089°60'0 0.4
2014-Dec-10 18:32N 29°60' W 089°60'3 2.5
2014-Dec-10 17:30N 29°58' W 090°02'3 2.8
2014-Dec-10 16:32N 29°56' W 090°04'2 1.8
2014-Dec-10 15:27N 29°57' W 090°03'2 2.1
2014-Dec-10 14:32N 29°59' W 090°01'2 1.9
2014-Dec-10 13:32N 29°60' W 089°60'0 0.0
2014-Dec-10 12:33N 29°60' W 089°60'0 0.0
2014-Dec-10 11:33N 29°60' W 089°60'0 0.0
2014-Dec-10 10:33N 29°60' W 089°60'0 0.0
2014-Dec-10 09:32N 29°60' W 089°60'0 0.0
2014-Dec-10 08:32N 29°60' W 089°60'  
Track history (hours):
 
Tides and Currents Weather Stations Pressure Air Temp Water Temp Dewpoint Dewpoint Depression Visibility Wind Speed Wind Dir Waves Ship Positions

MV Lockmaster

Owner: River Construction, Metaire, LA. More information available from US FCC via Universal Licensing System and Coast Guard Vessel Documentation Center.

Last reported at 2014-Dec-20 08:09 UTC. Time now 2014-Dec-20 14:27 UTC.
Position N 29°60' W 089°59'.

Type: Towing. MMSI: 367448420.

Date/timePositionNaut miles runAvg speedWind from/ knotsBaromVisibWave heightAir tempDewpointWater temp
2014-Dec-20 08:09N 29°60' W 089°59'0 0.0
2014-Dec-20 06:08N 29°60' W 089°59'0 0.0
2014-Dec-20 05:20N 29°60' W 089°59'0 0.0
2014-Dec-20 02:05N 29°60' W 089°59'0 0.0
2014-Dec-20 01:18N 29°60' W 089°59'0 0.0
2014-Dec-20 00:17N 29°60' W 089°59'0 0.0
2014-Dec-19 23:28N 29°60' W 089°59'0 0.0
2014-Dec-19 22:25N 29°60' W 089°59'0 0.0
2014-Dec-19 21:33N 29°60' W 089°59'0 0.0
2014-Dec-19 20:32N 29°60' W 089°59'0 0.0
2014-Dec-19 19:33N 30°00' W 089°59'0 0.1
2014-Dec-19 18:20N 29°60' W 089°59'0 0.4
2014-Dec-19 17:33N 29°60' W 089°59'1 0.4
2014-Dec-19 16:12N 29°60' W 089°58'1 1.3
2014-Dec-19 15:32N 29°60' W 089°59'0 0.0
2014-Dec-19 14:30N 29°60' W 089°59'0 0.0
2014-Dec-19 13:32N 29°60' W 089°59'0 0.1
2014-Dec-19 12:21N 29°60' W 089°60'0 0.0
2014-Dec-19 11:33N 29°60' W 089°60'0 0.0
2014-Dec-19 10:31N 29°60' W 089°60'0 0.0
2014-Dec-19 09:32N 29°60' W 089°60'0 0.0
2014-Dec-19 08:15N 29°60' W 089°60'0 0.0
2014-Dec-19 07:21N 29°60' W 089°60'0 0.0
2014-Dec-18 20:09N 29°60' W 089°60'0 0.0
2014-Dec-18 19:25N 29°60' W 089°60'3 2.3
2014-Dec-18 18:14N 29°58' W 090°02'0 0.2
2014-Dec-18 17:33N 29°58' W 090°02'3 2.7
2014-Dec-18 16:22N 29°55' W 090°04'4 2.1
2014-Dec-18 14:29N 29°56' W 090°08'3 2.5
2014-Dec-18 13:23N 29°54' W 090°06'0 0.0
2014-Dec-18 12:33N 29°54' W 090°06'0 0.0
2014-Dec-18 11:32N 29°54' W 090°06'0 0.0
2014-Dec-18 10:32N 29°54' W 090°06'0 0.0
2014-Dec-18 09:32N 29°54' W 090°06'0 0.0
2014-Dec-18 08:33N 29°54' W 090°06'0 0.0
2014-Dec-18 07:32N 29°54' W 090°06'4 4.6
2014-Dec-18 06:33N 29°58' W 090°02'1 0.8
2014-Dec-18 05:30N 29°58' W 090°02'1 0.5
2014-Dec-18 04:32N 29°58' W 090°01'2 2.3
2014-Dec-18 03:31N 29°60' W 089°60'0 0.0
2014-Dec-18 02:16N 29°60' W 089°60'0 0.0
2014-Dec-17 16:16N 29°60' W 089°60'3 1.0
2014-Dec-17 13:15N 29°58' W 090°02'0 0.0
2014-Dec-17 12:30N 29°58' W 090°02'0 0.2
2014-Dec-17 10:18N 29°58' W 090°02'3 3.5
2014-Dec-17 09:33N 29°60' W 089°60'0 0.0
2014-Dec-17 08:26N 29°60' W 089°60'1 0.6
2014-Dec-17 06:33N 30°00' W 089°58'4 3.7
2014-Dec-17 05:33N 29°58' W 090°02'5 3.3
2014-Dec-17 04:07N 29°55' W 089°57'2 2.0
2014-Dec-17 03:12N 29°56' W 089°59'3 4.4
2014-Dec-17 02:32N 29°58' W 090°02'3 2.9
2014-Dec-17 01:33N 29°60' W 089°59'0 0.1
2014-Dec-17 00:25N 29°60' W 089°60'0 0.0
2014-Dec-16 23:33N 29°60' W 089°60'0 0.0
2014-Dec-16 22:32N 29°60' W 089°60'0 0.0
2014-Dec-16 21:33N 29°60' W 089°60'0 0.0
2014-Dec-16 20:22N 29°60' W 089°60'0 0.0
2014-Dec-16 09:21N 29°60' W 089°60'0 0.0
2014-Dec-16 04:24N 29°60' W 089°60'0 0.0
2014-Dec-16 03:26N 29°60' W 089°60'0 0.0
2014-Dec-16 02:31N 29°60' W 089°60'0 0.0
2014-Dec-15 23:20N 29°60' W 089°60'0 0.0
2014-Dec-15 22:26N 29°60' W 089°60'0 0.0
2014-Dec-15 21:33N 29°60' W 089°60'0 0.0
2014-Dec-15 20:30N 29°60' W 089°60'4 4.0
2014-Dec-15 19:30N 30°01' W 089°55'1 0.6
2014-Dec-15 18:32N 30°01' W 089°54'4 4.3
2014-Dec-15 17:33N 29°60' W 089°59'0 0.2
2014-Dec-15 16:24N 29°60' W 089°60'0 0.0
2014-Dec-15 15:32N 29°60' W 089°60'0 0.0
2014-Dec-15 14:25N 29°60' W 089°60'0 0.0
2014-Dec-15 13:23N 29°60' W 089°60'0 0.0
2014-Dec-14 20:18N 29°60' W 089°60'5 2.2
2014-Dec-14 18:10N 29°56' W 089°58'1 0.7
2014-Dec-14 17:17N 29°56' W 089°59'3 4.6
2014-Dec-14 16:33N 29°58' W 090°02'2 1.7
2014-Dec-14 15:14N 29°60' W 090°01'1 1.7
2014-Dec-14 14:32N 29°60' W 089°60'0 0.0
2014-Dec-14 13:19N 29°60' W 089°60'0 0.0
2014-Dec-14 12:33N 29°60' W 089°60'0 0.0
2014-Dec-14 10:33N 29°60' W 089°60'0 0.0
2014-Dec-14 09:32N 29°60' W 089°60'0 0.0
2014-Dec-14 08:33N 29°60' W 089°60'0 0.0
2014-Dec-14 07:33N 29°60' W 089°60'0 0.0
2014-Dec-14 06:29N 29°60' W 089°60'0 0.0
2014-Dec-14 05:33N 29°60' W 089°60'0 0.0
2014-Dec-14 04:32N 29°60' W 089°60'0 0.0
2014-Dec-14 03:33N 29°60' W 089°60'0 0.0
2014-Dec-14 02:33N 29°60' W 089°60'0 0.0
2014-Dec-14 01:30N 29°60' W 089°60'0 0.0
2014-Dec-14 00:33N 29°60' W 089°60'0 0.0
2014-Dec-13 23:25N 29°60' W 089°60'0 0.0
2014-Dec-13 22:32N 29°60' W 089°60'0 0.0
2014-Dec-13 21:30N 29°60' W 089°60'4 3.7
2014-Dec-13 20:27N 30°01' W 089°55'4 4.7
2014-Dec-13 19:31N 29°60' W 090°00'1 0.0
2014-Dec-13 06:33N 29°60' W 089°60'0 0.0
2014-Dec-13 05:14N 29°60' W 089°60'0 0.0
2014-Dec-13 03:21N 29°60' W 089°60'0 0.0
2014-Dec-12 23:21N 29°60' W 089°60'0 0.0
2014-Dec-12 21:25N 29°60' W 089°60'0 0.0
2014-Dec-12 20:21N 29°60' W 089°60'3 3.2
2014-Dec-12 19:21N 29°57' W 090°01'1 0.5
2014-Dec-12 17:33N 29°57' W 090°00'2 1.8
2014-Dec-12 16:31N 29°58' W 090°02'1 1.0
2014-Dec-12 15:23N 29°59' W 090°01'2 1.8
2014-Dec-12 14:32N 29°58' W 090°02'0 0.0
2014-Dec-12 13:33N 29°58' W 090°02'0 0.0
2014-Dec-12 12:32N 29°58' W 090°02'0 0.2
2014-Dec-12 11:32N 29°58' W 090°02'1 0.9
2014-Dec-12 10:33N 29°59' W 090°01'2 2.0
2014-Dec-12 09:32N 29°60' W 089°60'0 0.0
2014-Dec-12 08:30N 29°60' W 089°60'0 0.0
2014-Dec-12 07:29N 29°60' W 089°60'0 0.0
2014-Dec-12 06:30N 29°60' W 089°60'0 0.0
2014-Dec-12 05:32N 29°60' W 089°60'0 0.0
2014-Dec-12 04:15N 29°60' W 089°60'0 0.0
2014-Dec-11 16:31N 29°60' W 089°60'0 0.0
2014-Dec-11 13:30N 29°60' W 089°60'0 0.0
2014-Dec-11 12:32N 29°60' W 089°60'0 0.0
2014-Dec-11 10:27N 29°60' W 089°60'0 0.0
2014-Dec-11 09:17N 29°60' W 089°60'0 0.0
2014-Dec-11 02:18N 29°60' W 089°60'0 0.0
2014-Dec-11 00:05N 29°60' W 089°60'0 0.0
2014-Dec-10 23:31N 29°60' W 089°60'0 0.0
2014-Dec-10 22:18N 29°60' W 089°60'0 0.2
2014-Dec-10 21:20N 29°60' W 089°59'0 0.2
2014-Dec-10 20:28N 29°60' W 089°60'0 0.0
2014-Dec-10 19:33N 29°60' W 089°60'0 0.4
2014-Dec-10 18:32N 29°60' W 089°60'3 2.5
2014-Dec-10 17:30N 29°58' W 090°02'3 2.8
2014-Dec-10 16:32N 29°56' W 090°04'2 1.8
2014-Dec-10 15:27N 29°57' W 090°03'2 2.1
2014-Dec-10 14:32N 29°59' W 090°01'2 1.9
2014-Dec-10 13:32N 29°60' W 089°60'0 0.0
2014-Dec-10 12:33N 29°60' W 089°60'0 0.0
2014-Dec-10 11:33N 29°60' W 089°60'0 0.0
2014-Dec-10 10:33N 29°60' W 089°60'0 0.0
2014-Dec-10 09:32N 29°60' W 089°60'0 0.0
2014-Dec-10 08:32N 29°60' W 089°60'  

Dump ship's entire track history